Time;durP1;ratioP1;P1;durP2;ratioP2;P2;SDS_P1;SDS_P2;PMS_P1;PMS_P2;Temp;Humidity;BMP_temperature;BMP_pressure;BME280_temperature;BME280_humidity;BME280_pressure;Samples;Min_cycle;Max_cycle;Signal;HPM_P1;HPM_P2
2022/05/13 00:02:16;;;;;;;3.03;2.70;;;22.70;46.10;23.80;101032.00;;;;5029014;28;20528;-52
2022/05/13 00:04:42;;;;;;;2.50;2.30;;;22.70;46.20;23.80;101041.00;;;;5028607;28;20552;-51
2022/05/13 00:07:08;;;;;;;2.53;2.33;;;22.70;46.20;23.80;101034.00;;;;5028473;28;20171;-52
2022/05/13 00:12:18;;;;;;;2.93;2.33;;;22.60;46.40;23.70;101039.00;;;;5028574;28;20234;-51
2022/05/13 00:14:44;;;;;;;2.40;2.13;;;22.60;46.40;23.70;101036.00;;;;5027169;28;20175;-51
2022/05/13 00:17:10;;;;;;;2.60;2.40;;;22.60;46.40;23.70;101037.00;;;;5028045;28;20235;-52
2022/05/13 00:19:37;;;;;;;3.10;2.50;;;22.60;46.50;23.70;101039.00;;;;5028624;28;20374;-51
2022/05/13 00:22:02;;;;;;;2.60;2.40;;;22.60;46.60;23.70;101036.00;;;;5028552;28;20302;-52
2022/05/13 00:24:28;;;;;;;2.80;2.53;;;22.50;46.60;23.70;101036.00;;;;5028280;28;20188;-53
2022/05/13 00:26:54;;;;;;;2.70;2.50;;;22.50;47.20;23.70;101030.00;;;;5027881;28;20631;-52
2022/05/13 00:29:20;;;;;;;3.20;2.57;;;22.50;46.60;23.70;101026.00;;;;5028228;28;20175;-52
2022/05/13 00:31:45;;;;;;;2.90;2.70;;;22.50;46.70;23.60;101034.00;;;;5028216;28;20663;-51
2022/05/13 00:34:13;;;;;;;2.70;2.50;;;22.40;46.70;23.60;101036.00;;;;5027776;28;20199;-52
2022/05/13 00:36:39;;;;;;;3.00;2.70;;;22.50;46.80;23.60;101037.00;;;;5026518;28;20195;-51
2022/05/13 00:39:05;;;;;;;2.77;2.50;;;22.40;46.80;23.60;101040.00;;;;5028147;28;20175;-51
2022/05/13 00:41:31;;;;;;;2.80;2.50;;;22.40;46.70;23.60;101034.00;;;;5026919;28;20182;-51
2022/05/13 00:43:57;;;;;;;3.23;2.50;;;22.40;46.80;23.60;101035.00;;;;5028379;28;20167;-51
2022/05/13 00:46:25;;;;;;;2.73;2.53;;;22.40;46.70;23.50;101041.00;;;;5027681;28;20197;-51
2022/05/13 00:48:51;;;;;;;3.93;2.60;;;22.40;46.70;23.50;101043.00;;;;5026696;28;20518;-53
2022/05/13 00:51:27;;;;;;;2.73;2.50;;;22.30;46.70;23.50;101034.00;;;;5028342;28;20221;-51
2022/05/13 00:53:55;;;;;;;2.60;2.40;;;22.30;46.80;23.50;101020.00;;;;5026678;28;20202;-51
2022/05/13 00:56:20;;;;;;;3.10;2.30;;;22.30;46.80;23.50;101028.00;;;;5026011;28;20228;-52
2022/05/13 00:58:48;;;;;;;2.73;2.40;;;22.30;46.80;23.50;101030.00;;;;5026177;28;20175;-53
2022/05/13 01:01:14;;;;;;;3.20;2.60;;;22.30;46.70;23.40;101022.00;;;;5026314;28;20175;-53
2022/05/13 01:03:40;;;;;;;2.60;2.40;;;22.30;46.80;23.40;101018.00;;;;5027431;28;20187;-52
2022/05/13 01:06:10;;;;;;;2.70;2.50;;;22.30;46.80;23.40;101022.00;;;;5025776;28;20210;-52
2022/05/13 01:08:36;;;;;;;2.63;2.43;;;22.30;46.90;23.40;101035.00;;;;5026171;28;20552;-51
2022/05/13 01:11:04;;;;;;;2.70;2.50;;;22.20;46.80;23.40;101038.00;;;;5031447;28;20179;-54
2022/05/13 01:13:30;;;;;;;2.90;2.50;;;22.20;46.90;23.40;101035.00;;;;5033527;28;20203;-53
2022/05/13 01:15:56;;;;;;;3.50;2.30;;;22.20;46.80;23.40;101044.00;;;;5032131;28;20191;-53
2022/05/13 01:18:40;;;;;;;2.50;2.30;;;22.20;46.90;23.40;101039.00;;;;5028255;28;20574;-51
2022/05/13 01:21:08;;;;;;;2.53;2.33;;;22.20;46.90;23.30;101038.00;;;;5027502;28;20159;-52
2022/05/13 01:23:40;;;;;;;2.70;2.50;;;22.20;47.10;23.30;101046.00;;;;5027072;28;20190;-50
2022/05/13 01:26:09;;;;;;;2.70;2.50;;;22.10;46.80;23.30;101031.00;;;;5026548;28;20515;-52
2022/05/13 01:28:47;;;;;;;3.50;2.57;;;22.10;47.00;23.30;101033.00;;;;5027020;28;20182;-52
2022/05/13 01:31:19;;;;;;;2.57;2.30;;;22.10;47.00;23.20;101033.00;;;;5025774;28;20175;-54
2022/05/13 01:33:44;;;;;;;2.40;2.20;;;22.10;47.10;23.20;101040.00;;;;5025747;28;20563;-52
2022/05/13 01:36:12;;;;;;;2.70;2.30;;;22.10;47.00;23.20;101028.00;;;;5026303;28;20186;-53
2022/05/13 01:38:38;;;;;;;2.50;2.30;;;22.10;47.10;23.20;101028.00;;;;5027449;28;20206;-51
2022/05/13 01:41:06;;;;;;;2.77;2.50;;;22.10;47.10;23.20;101036.00;;;;5025501;28;20159;-52
2022/05/13 01:43:31;;;;;;;2.60;2.40;;;22.10;47.10;23.20;101038.00;;;;5026704;28;20173;-52
2022/05/13 01:45:57;;;;;;;2.47;2.27;;;22.00;47.00;23.20;101043.00;;;;5026434;28;20198;-52
2022/05/13 01:48:23;;;;;;;2.47;2.27;;;22.00;47.00;23.20;101045.00;;;;5026734;28;20185;-52
2022/05/13 01:50:49;;;;;;;2.47;2.27;;;22.00;46.90;23.20;101048.00;;;;5025184;28;20628;-51
2022/05/13 01:53:15;;;;;;;2.40;2.20;;;22.00;47.00;23.20;101034.00;;;;5026657;28;20197;-50
2022/05/13 01:55:42;;;;;;;2.73;2.40;;;22.00;47.00;23.10;101042.00;;;;5026008;28;20275;-52
2022/05/13 01:58:12;;;;;;;2.57;2.37;;;22.00;47.00;23.10;101043.00;;;;5026501;28;20257;-53
2022/05/13 02:00:39;;;;;;;2.73;2.37;;;22.00;47.10;23.10;101044.00;;;;5026713;28;20190;-52
2022/05/13 02:05:49;;;;;;;2.70;2.50;;;21.90;47.00;23.10;101041.00;;;;5026410;28;20229;-53
2022/05/13 02:08:16;;;;;;;2.73;2.53;;;21.90;47.00;23.10;101049.00;;;;5025249;28;20321;-51
2022/05/13 02:10:42;;;;;;;2.57;2.37;;;21.90;47.00;23.10;101042.00;;;;5026161;28;20244;-52
2022/05/13 02:13:08;;;;;;;2.50;2.30;;;21.90;47.10;23.10;101048.00;;;;5026173;28;20285;-53
2022/05/13 02:15:34;;;;;;;2.57;2.37;;;21.90;47.20;23.00;101045.00;;;;5025762;28;20279;-52
2022/05/13 02:17:59;;;;;;;2.50;2.30;;;21.90;47.30;23.00;101048.00;;;;5025721;28;20197;-50
2022/05/13 02:20:25;;;;;;;2.80;2.60;;;21.90;47.20;23.00;101042.00;;;;5026255;28;20162;-51
2022/05/13 02:22:52;;;;;;;2.33;2.13;;;21.80;47.20;23.00;101041.00;;;;5025734;28;20252;-51
2022/05/13 02:25:17;;;;;;;2.60;2.40;;;21.80;47.20;23.00;101042.00;;;;5026000;28;20202;-52
2022/05/13 02:27:43;;;;;;;2.60;2.30;;;21.80;47.20;23.00;101043.00;;;;5025863;28;20175;-53
2022/05/13 02:30:09;;;;;;;2.50;2.30;;;21.80;47.30;23.00;101040.00;;;;5026471;28;20186;-52
2022/05/13 02:32:35;;;;;;;2.90;2.67;;;21.80;47.20;23.00;101041.00;;;;5026003;28;20260;-51
2022/05/13 02:35:01;;;;;;;2.40;2.20;;;21.80;47.30;22.90;101046.00;;;;5026390;28;20869;-51
2022/05/13 02:37:26;;;;;;;2.70;2.50;;;21.80;47.30;22.70;101049.00;;;;5025783;28;20167;-53
2022/05/13 02:39:52;;;;;;;2.60;2.40;;;21.80;47.30;22.90;101042.00;;;;5026146;28;20246;-51
2022/05/13 02:42:18;;;;;;;3.00;2.50;;;21.70;47.20;22.90;101050.00;;;;5024941;28;20259;-50
2022/05/13 02:44:44;;;;;;;2.97;2.37;;;21.80;47.40;22.90;101038.00;;;;5025837;28;20186;-53
2022/05/13 02:47:10;;;;;;;2.60;2.40;;;21.80;47.50;22.90;101026.00;;;;5025760;28;20201;-52
2022/05/13 02:49:35;;;;;;;2.90;2.53;;;21.80;47.50;22.90;101036.00;;;;5026239;28;20182;-52
2022/05/13 02:52:01;;;;;;;2.63;2.43;;;21.70;47.60;22.90;101035.00;;;;5026275;28;20232;-52
2022/05/13 02:54:27;;;;;;;2.60;2.40;;;21.70;47.50;22.80;101036.00;;;;5026302;28;20217;-53
2022/05/13 02:56:53;;;;;;;2.70;2.40;;;21.70;47.50;22.80;101039.00;;;;5025912;28;20175;-51
2022/05/13 02:59:18;;;;;;;2.80;2.50;;;21.70;47.50;22.80;101035.00;;;;5025921;28;20167;-53
2022/05/13 03:01:44;;;;;;;2.60;2.40;;;21.70;47.60;22.80;101047.00;;;;5026018;28;20175;-52
2022/05/13 03:04:10;;;;;;;2.40;2.20;;;21.70;47.70;22.80;101039.00;;;;5025762;28;20648;-52
2022/05/13 03:06:35;;;;;;;3.60;2.70;;;21.70;47.80;22.80;101041.00;;;;5025466;28;20253;-54
2022/05/13 03:09:01;;;;;;;3.40;2.40;;;21.60;47.50;22.70;101040.00;;;;5026234;28;20206;-52
2022/05/13 03:11:27;;;;;;;2.50;2.30;;;21.60;47.50;22.70;101054.00;;;;5024711;28;20278;-53
2022/05/13 03:13:53;;;;;;;2.83;2.60;;;21.70;47.60;22.70;101060.00;;;;5025660;28;20209;-52
2022/05/13 03:16:21;;;;;;;3.10;2.47;;;21.60;47.70;22.50;101058.00;;;;5025470;28;20198;-50
2022/05/13 03:18:49;;;;;;;2.70;2.30;;;21.60;47.60;22.70;101062.00;;;;5026030;28;20591;-51
2022/05/13 03:21:14;;;;;;;3.00;2.60;;;21.50;47.50;22.70;101071.00;;;;5025806;28;20171;-53
2022/05/13 03:23:43;;;;;;;2.40;2.20;;;21.60;47.70;22.70;101079.00;;;;5025615;28;20174;-52
2022/05/13 03:26:15;;;;;;;2.40;2.20;;;21.50;47.60;22.70;101057.00;;;;5023986;28;20198;-50
2022/05/13 03:28:41;;;;;;;3.37;2.57;;;21.60;47.60;22.60;101067.00;;;;5025690;28;20733;-51
2022/05/13 03:31:07;;;;;;;4.30;2.53;;;21.60;47.70;22.60;101062.00;;;;5025509;28;20270;-54
2022/05/13 03:33:33;;;;;;;4.53;2.50;;;21.60;48.20;22.60;101056.00;;;;5025384;28;20234;-51
2022/05/13 03:35:58;;;;;;;3.03;2.17;;;21.60;47.90;22.60;101045.00;;;;5025591;28;20285;-51
2022/05/13 03:38:24;;;;;;;3.17;2.37;;;21.60;47.70;22.60;101049.00;;;;5025607;28;20614;-52
2022/05/13 03:40:50;;;;;;;4.03;2.57;;;21.60;47.70;22.60;101056.00;;;;5025732;28;20176;-52
2022/05/13 03:43:16;;;;;;;4.00;2.67;;;21.50;47.60;22.60;101056.00;;;;5025513;28;20189;-52
2022/05/13 03:45:42;;;;;;;3.07;2.27;;;21.50;47.70;22.50;101047.00;;;;5025975;28;20205;-53
2022/05/13 03:48:08;;;;;;;2.97;2.20;;;21.40;47.70;22.50;101052.00;;;;5026748;28;20186;-51
2022/05/13 03:50:35;;;;;;;2.27;2.00;;;21.40;47.60;22.50;101048.00;;;;5027570;28;20183;-52
2022/05/13 03:53:02;;;;;;;3.03;2.37;;;21.40;47.70;22.50;101047.00;;;;5028810;28;20664;-51
2022/05/13 03:55:27;;;;;;;2.57;2.37;;;21.40;47.60;22.50;101050.00;;;;5028628;28;20274;-52
2022/05/13 03:57:53;;;;;;;2.73;2.20;;;21.30;47.60;22.50;101042.00;;;;5028598;28;20707;-52
2022/05/13 04:00:19;;;;;;;2.63;2.23;;;21.30;47.60;22.50;101046.00;;;;5029074;28;20634;-51
2022/05/13 04:02:45;;;;;;;3.43;2.20;;;21.30;47.60;22.40;101039.00;;;;5028392;28;20181;-52
2022/05/13 04:10:40;;;;;;;2.30;2.10;;;21.30;47.50;22.30;101057.00;;;;5021558;28;20573;-50
2022/05/13 04:16:06;;;;;;;3.17;2.13;;;21.20;47.40;22.30;101055.00;;;;5008187;28;20226;-51
2022/05/13 04:18:40;;;;;;;3.73;2.17;;;21.20;47.30;22.10;101051.00;;;;5007372;28;20611;-52
2022/05/13 04:21:12;;;;;;;2.77;2.30;;;21.20;47.40;22.30;101045.00;;;;5007915;28;20338;-51
2022/05/13 04:23:41;;;;;;;2.30;2.10;;;21.30;47.50;22.30;101051.00;;;;5008113;28;20255;-50
2022/05/13 04:26:07;;;;;;;3.90;2.30;;;21.20;47.40;22.30;101049.00;;;;5008180;28;20198;-52
2022/05/13 04:28:33;;;;;;;4.00;1.90;;;21.20;47.40;22.20;101057.00;;;;5007828;28;20455;-51
2022/05/13 04:30:59;;;;;;;4.37;2.30;;;21.20;47.40;22.20;101065.00;;;;5007811;28;20660;-49
2022/05/13 04:33:25;;;;;;;5.10;2.30;;;21.20;45.90;22.20;101075.00;;;;5006597;28;20267;-50
2022/05/13 04:35:51;;;;;;;6.10;2.77;;;21.10;44.20;22.20;101062.00;;;;5008009;28;20195;-50
2022/05/13 04:38:17;;;;;;;5.37;2.50;;;21.10;44.50;22.10;101065.00;;;;5006284;28;20254;-49
2022/05/13 04:40:42;;;;;;;5.20;2.77;;;21.00;44.70;22.10;101078.00;;;;5007870;28;20164;-49
2022/05/13 04:43:08;;;;;;;6.20;2.83;;;20.90;44.20;22.10;101076.00;;;;5007949;28;20186;-50
2022/05/13 04:45:34;;;;;;;5.83;2.70;;;20.70;44.30;22.00;101075.00;;;;5007856;28;20200;-51
2022/05/13 04:48:16;;;;;;;6.47;2.87;;;20.50;44.00;21.90;101077.00;;;;5007198;28;20996;-50
2022/05/13 04:50:50;;;;;;;5.63;3.00;;;20.40;44.40;21.80;101082.00;;;;5007699;28;20160;-51
2022/05/13 04:53:21;;;;;;;5.97;2.50;;;20.30;44.60;21.70;101092.00;;;;5007179;28;20186;-50
2022/05/13 04:55:49;;;;;;;6.20;2.80;;;20.30;44.50;21.70;101099.00;;;;5007407;28;20190;-49
2022/05/13 04:58:15;;;;;;;4.93;2.60;;;20.10;44.50;21.60;101087.00;;;;5007003;28;20180;-50
2022/05/13 05:00:40;;;;;;;5.97;2.70;;;20.10;44.70;21.60;101086.00;;;;5007187;28;20168;-51
2022/05/13 05:03:06;;;;;;;6.27;2.70;;;20.10;44.80;21.60;101099.00;;;;5007385;28;20571;-51
2022/05/13 05:05:32;;;;;;;5.90;2.60;;;20.00;44.90;21.50;101096.00;;;;5007014;28;20197;-50
2022/05/13 05:07:57;;;;;;;6.13;2.70;;;19.90;45.00;21.50;101096.00;;;;5006845;28;20214;-50
2022/05/13 05:10:23;;;;;;;5.57;2.70;;;19.90;45.60;21.40;101104.00;;;;5007416;28;20255;-50
2022/05/13 05:12:53;;;;;;;4.57;2.63;;;19.80;45.30;21.30;101111.00;;;;5006984;28;20822;-49
2022/05/13 05:15:20;;;;;;;6.63;2.73;;;19.80;45.60;21.30;101103.00;;;;5007583;28;20216;-49
2022/05/13 05:17:46;;;;;;;4.93;2.57;;;19.70;45.50;21.30;101104.00;;;;5006523;28;20695;-50
2022/05/13 05:20:12;;;;;;;7.30;2.93;;;19.80;45.50;21.20;101106.00;;;;5007369;28;20187;-49
2022/05/13 05:22:38;;;;;;;5.53;2.50;;;19.80;45.60;21.20;101110.00;;;;5007300;28;20247;-50
2022/05/13 05:25:04;;;;;;;5.87;2.67;;;19.80;45.60;21.20;101110.00;;;;5006742;28;20874;-48
2022/05/13 05:27:30;;;;;;;6.93;2.77;;;19.70;45.60;21.20;101119.00;;;;5007344;28;20266;-50
2022/05/13 05:29:55;;;;;;;5.77;2.83;;;19.60;45.70;21.10;101114.00;;;;5006994;28;20187;-49
2022/05/13 05:32:21;;;;;;;5.53;3.10;;;19.60;45.90;21.10;101116.00;;;;5007002;28;20215;-49
2022/05/13 05:34:47;;;;;;;5.30;3.10;;;19.60;45.90;21.10;101122.00;;;;5008238;28;20174;-52
2022/05/13 05:37:13;;;;;;;5.27;2.70;;;19.60;46.00;21.00;101120.00;;;;5006405;28;20175;-49
2022/05/13 05:39:38;;;;;;;5.60;2.90;;;19.50;46.00;21.00;101128.00;;;;5007054;28;20809;-50
2022/05/13 05:42:04;;;;;;;8.37;3.10;;;19.30;46.10;20.90;101137.00;;;;5006645;28;20681;-49
2022/05/13 05:44:30;;;;;;;5.70;3.10;;;19.30;46.50;20.90;101137.00;;;;5006447;28;20180;-50
2022/05/13 05:46:58;;;;;;;5.73;3.00;;;19.30;46.50;20.90;101124.00;;;;5005959;28;20182;-50
2022/05/13 05:49:24;;;;;;;4.97;2.70;;;19.30;46.50;20.80;101131.00;;;;5006798;28;20183;-52
2022/05/13 05:51:49;;;;;;;6.40;3.03;;;19.20;46.70;20.80;101133.00;;;;5006773;28;20179;-51
2022/05/13 05:57:14;;;;;;;7.83;3.27;;;19.10;47.20;20.70;101144.00;;;;5007631;28;20917;-49
2022/05/13 05:59:44;;;;;;;5.73;3.30;;;19.10;47.10;20.70;101137.00;;;;5007010;28;20230;-50
2022/05/13 06:02:10;;;;;;;5.70;3.30;;;19.10;47.30;20.60;101151.00;;;;5006795;28;20176;-50
2022/05/13 06:04:38;;;;;;;6.43;3.10;;;19.10;47.20;20.60;101158.00;;;;5006015;28;20201;-51
2022/05/13 06:07:09;;;;;;;6.73;2.90;;;19.10;47.30;20.60;101150.00;;;;5006030;28;20191;-50
2022/05/13 06:09:35;;;;;;;6.93;3.10;;;19.10;47.40;20.60;101153.00;;;;5006249;28;20724;-50
2022/05/13 06:12:01;;;;;;;4.83;3.00;;;19.10;47.50;20.60;101151.00;;;;5005279;28;20187;-50
2022/05/13 06:14:27;;;;;;;6.73;3.40;;;19.10;47.50;20.60;101156.00;;;;5006124;28;20207;-50
2022/05/13 06:16:53;;;;;;;6.27;3.23;;;19.00;47.50;20.50;101148.00;;;;5005612;28;20188;-50
2022/05/13 06:19:19;;;;;;;7.50;3.10;;;19.00;47.80;20.50;101148.00;;;;5006007;28;20232;-48
2022/05/13 06:21:45;;;;;;;8.23;3.10;;;19.00;47.90;20.50;101152.00;;;;5006007;28;20195;-50
2022/05/13 06:24:11;;;;;;;6.27;3.03;;;19.00;48.00;20.50;101152.00;;;;5005731;28;20559;-48
2022/05/13 06:26:37;;;;;;;6.00;2.97;;;19.10;48.10;20.50;101155.00;;;;5005477;28;20218;-50
2022/05/13 06:29:04;;;;;;;5.40;2.70;;;19.10;47.90;20.50;101159.00;;;;5005705;28;20241;-50
2022/05/13 06:31:29;;;;;;;6.90;3.17;;;19.10;48.50;20.50;101163.00;;;;5006041;28;20245;-49
2022/05/13 06:33:55;;;;;;;6.03;3.23;;;19.00;48.00;20.50;101162.00;;;;5005669;28;20204;-49
2022/05/13 06:36:21;;;;;;;7.23;3.23;;;19.00;48.50;20.40;101166.00;;;;5005544;28;20188;-50
2022/05/13 06:38:47;;;;;;;5.87;3.17;;;18.90;48.50;20.40;101175.00;;;;5005530;28;20180;-51
2022/05/13 06:41:12;;;;;;;6.67;3.20;;;18.90;49.20;20.40;101162.00;;;;5005601;28;20163;-54
2022/05/13 06:43:38;;;;;;;7.37;3.07;;;18.90;48.50;20.40;101157.00;;;;5005863;28;20205;-49
2022/05/13 06:46:04;;;;;;;6.30;3.13;;;18.90;48.50;20.40;101168.00;;;;5005604;28;20207;-49
2022/05/13 06:48:30;;;;;;;7.63;3.17;;;18.90;48.50;20.40;101172.00;;;;5005720;28;20175;-50
2022/05/13 06:50:55;;;;;;;6.13;3.17;;;18.90;48.70;20.40;101166.00;;;;5005913;28;20171;-48
2022/05/13 06:53:21;;;;;;;5.00;3.10;;;18.90;48.80;20.30;101170.00;;;;5005245;28;20743;-49
2022/05/13 06:55:47;;;;;;;6.30;2.80;;;18.90;48.80;20.30;101173.00;;;;5020406;28;20199;-50
2022/05/13 06:58:13;;;;;;;5.67;2.90;;;18.90;48.90;20.30;101175.00;;;;5005091;28;20167;-50
2022/05/13 07:00:39;;;;;;;7.53;2.90;;;18.90;48.70;20.30;101182.00;;;;5005465;28;20187;-50
2022/05/13 07:03:06;;;;;;;5.90;2.83;;;18.90;48.70;20.30;101179.00;;;;5005550;28;20703;-49
2022/05/13 07:05:32;;;;;;;6.47;2.70;;;18.90;48.70;20.30;101170.00;;;;5005555;28;20802;-50
2022/05/13 07:07:58;;;;;;;5.43;2.80;;;18.80;48.60;20.20;101172.00;;;;5005373;28;20301;-49
2022/05/13 07:10:24;;;;;;;6.00;3.00;;;18.70;48.60;20.20;101188.00;;;;5005610;28;20258;-49
2022/05/13 07:12:49;;;;;;;4.03;2.60;;;18.70;48.80;20.20;101178.00;;;;5005357;28;20207;-50
2022/05/13 07:15:17;;;;;;;6.23;2.70;;;18.70;48.90;20.20;101181.00;;;;5005401;28;20696;-50
2022/05/13 07:17:43;;;;;;;5.23;2.43;;;18.70;48.80;20.20;101190.00;;;;5004770;28;20179;-50
2022/05/13 07:20:09;;;;;;;6.20;3.00;;;18.80;48.70;20.20;101184.00;;;;5005392;28;20179;-49
2022/05/13 07:22:35;;;;;;;5.10;2.77;;;18.70;48.40;20.10;101186.00;;;;5005854;28;20183;-50
2022/05/13 07:25:01;;;;;;;5.27;2.90;;;18.70;48.50;20.10;101197.00;;;;5009793;28;20199;-49
2022/05/13 07:27:27;;;;;;;5.10;2.67;;;18.70;48.70;20.10;101200.00;;;;5012353;28;20576;-49
2022/05/13 07:29:52;;;;;;;5.00;2.80;;;18.60;48.60;20.10;101203.00;;;;5014697;28;20195;-49
2022/05/13 07:32:18;;;;;;;6.00;2.77;;;18.60;48.60;20.10;101192.00;;;;5010498;28;20835;-50
2022/05/13 07:34:44;;;;;;;4.60;2.57;;;18.60;48.50;20.10;101194.00;;;;5009246;28;20191;-52
2022/05/13 07:37:09;;;;;;;5.67;2.70;;;18.60;48.70;20.00;101200.00;;;;5008880;28;20660;-48
2022/05/13 07:42:19;;;;;;;3.97;2.47;;;18.60;48.90;20.00;101200.00;;;;5009106;28;20179;-52
2022/05/13 07:44:45;;;;;;;5.20;2.67;;;18.60;48.80;20.00;101203.00;;;;5008970;28;20176;-50
2022/05/13 07:47:11;;;;;;;5.20;2.50;;;18.60;48.90;20.00;101205.00;;;;5008757;28;20187;-50
2022/05/13 07:49:38;;;;;;;4.87;2.80;;;18.60;48.70;20.00;101197.00;;;;5009342;28;20172;-51
2022/05/13 07:52:04;;;;;;;5.50;2.50;;;18.60;48.60;20.00;101199.00;;;;5009353;28;20190;-50
2022/05/13 07:54:30;;;;;;;3.63;2.23;;;18.60;48.50;20.00;101198.00;;;;5007546;28;20250;-50
2022/05/13 07:56:55;;;;;;;4.27;2.60;;;18.60;48.30;20.00;101209.00;;;;5008119;28;20180;-50
2022/05/13 07:59:21;;;;;;;5.10;2.60;;;18.70;48.40;20.00;101202.00;;;;5008303;28;20382;-50
2022/05/13 08:01:47;;;;;;;4.67;2.50;;;18.70;48.50;20.00;101200.00;;;;4948945;28;20186;-50
2022/05/13 08:04:13;;;;;;;4.47;2.47;;;18.70;48.40;20.00;101208.00;;;;5020346;28;20224;-54
2022/05/13 08:06:40;;;;;;;3.13;2.30;;;18.70;48.10;20.00;101208.00;;;;5028127;28;20286;-51
2022/05/13 08:09:06;;;;;;;4.87;2.30;;;18.60;47.70;20.00;101202.00;;;;5028015;28;20193;-49
2022/05/13 08:11:31;;;;;;;4.33;2.27;;;18.70;48.00;20.00;101205.00;;;;5028083;28;20171;-50
2022/05/13 08:13:57;;;;;;;3.80;2.30;;;18.70;47.70;20.00;101209.00;;;;5028198;28;20237;-48
2022/05/13 08:19:01;;;;;;;5.20;2.50;;;18.60;47.40;19.90;101229.00;;;;5210374;23;20234;-46
2022/05/13 08:21:27;;;;;;;4.97;2.33;;;18.60;47.20;19.90;101218.00;;;;4930992;29;20600;-51
2022/05/13 08:23:53;;;;;;;4.03;1.93;;;18.60;46.80;19.90;101209.00;;;;4930660;29;20194;-52
2022/05/13 08:26:19;;;;;;;3.87;1.90;;;18.60;47.20;19.90;101219.00;;;;4937889;29;20200;-53
2022/05/13 08:28:45;;;;;;;3.17;2.10;;;18.80;47.10;19.90;101214.00;;;;4948388;28;20198;-51
2022/05/13 08:31:11;;;;;;;6.80;2.20;;;18.90;47.10;20.00;101209.00;;;;4950224;28;20208;-52
2022/05/13 08:33:37;;;;;;;4.47;2.23;;;19.00;47.20;19.80;101205.00;;;;4948473;28;20244;-51
2022/05/13 08:36:04;;;;;;;2.83;2.00;;;19.00;47.30;20.00;101221.00;;;;4948633;28;20173;-52
2022/05/13 08:38:34;;;;;;;3.70;2.20;;;19.10;47.30;20.10;101210.00;;;;4948128;28;20197;-52
2022/05/13 08:41:09;;;;;;;7.07;2.30;;;19.10;47.40;20.10;101214.00;;;;4948603;29;20192;-53
2022/05/13 08:43:43;;;;;;;2.90;2.00;;;19.20;47.40;20.20;101181.00;;;;4932890;29;20171;-53
2022/05/13 08:46:15;;;;;;;6.77;2.50;;;19.30;47.40;20.20;101216.00;;;;4944901;29;20173;-53
2022/05/13 08:49:23;;;;;;;7.40;2.57;;;19.30;47.60;20.20;101217.00;;;;4909507;29;20742;-52
2022/05/13 08:53:06;;;;;;;5.13;2.30;;;19.30;47.60;20.30;101221.00;;;;4932345;29;20185;-52
2022/05/13 08:54:56;;;;;;;7.23;2.50;;;19.40;47.80;20.30;101228.00;;;;4948108;29;20684;-52
2022/05/13 08:57:24;;;;;;;10.33;2.57;;;19.40;48.20;20.30;101216.00;;;;4930213;29;20211;-54
2022/05/13 09:00:03;;;;;;;5.87;2.10;;;19.40;48.60;20.30;101229.00;;;;4935087;28;20178;-52
2022/05/13 09:02:32;;;;;;;3.97;2.00;;;19.40;48.50;20.40;101213.00;;;;4857755;29;20194;-53
2022/05/13 09:05:35;;;;;;;5.47;2.20;;;19.40;48.60;20.40;101215.00;;;;4925771;29;20183;-53
2022/05/13 09:08:02;;;;;;;7.33;2.20;;;19.40;48.80;20.40;101215.00;;;;4920523;29;20259;-52
2022/05/13 09:10:28;;;;;;;4.07;2.20;;;19.40;49.00;20.40;101228.00;;;;4928202;29;20179;-52
2022/05/13 09:13:12;;;;;;;3.57;2.03;;;19.40;49.80;20.50;101214.00;;;;4912881;29;20207;-52
2022/05/13 09:15:50;;;;;;;5.07;2.00;;;19.50;49.80;20.50;101218.00;;;;4925371;29;20660;-52
2022/05/13 09:18:36;;;;;;;3.43;1.90;;;19.50;49.60;20.50;101233.00;;;;4932733;28;20551;-54
2022/05/13 09:21:16;;;;;;;3.87;2.00;;;19.40;49.70;20.50;101231.00;;;;4948584;28;20255;-53
2022/05/13 09:23:42;;;;;;;4.57;2.10;;;19.50;49.80;20.50;101224.00;;;;4947745;29;20205;-54
2022/05/13 09:26:14;;;;;;;3.87;1.90;;;19.50;49.80;20.60;101223.00;;;;4949289;28;20182;-54
2022/05/13 09:29:16;;;;;;;2.93;1.80;;;19.50;49.80;20.60;101234.00;;;;4947249;28;20261;-54
2022/05/13 09:32:04;;;;;;;7.77;2.27;;;19.50;49.80;20.60;101220.00;;;;4947214;28;20168;-53
2022/05/13 09:34:39;;;;;;;3.40;1.90;;;19.50;49.80;20.60;101231.00;;;;4930095;29;20190;-53
2022/05/13 09:37:12;;;;;;;3.23;1.83;;;19.60;49.90;20.60;101235.00;;;;4929558;29;20227;-52
2022/05/13 09:39:44;;;;;;;2.87;1.80;;;19.60;49.90;20.60;101236.00;;;;4929178;29;20794;-53
2022/05/13 09:42:34;;;;;;;3.43;1.70;;;19.60;49.90;20.60;101232.00;;;;4929293;29;20209;-53
2022/05/13 09:45:19;;;;;;;3.03;1.83;;;19.60;49.90;20.70;101234.00;;;;4929632;29;20218;-52
2022/05/13 09:48:03;;;;;;;1.77;1.40;;;19.60;49.90;20.70;101231.00;;;;4928547;29;20205;-53
2022/05/13 09:50:33;;;;;;;2.67;1.70;;;19.60;49.90;20.70;101225.00;;;;4931474;29;20254;-52
2022/05/13 09:53:23;;;;;;;3.17;1.67;;;19.60;49.90;20.70;101200.00;;;;4948308;28;20205;-53
2022/05/13 09:55:51;;;;;;;4.00;1.90;;;19.70;50.00;20.70;101232.00;;;;4947258;29;20166;-52
2022/05/13 09:58:20;;;;;;;3.20;1.90;;;19.70;50.00;20.70;101224.00;;;;4947088;28;20193;-52
2022/05/13 10:00:49;;;;;;;3.57;1.60;;;19.70;50.00;20.70;101234.00;;;;4948458;28;20208;-52
2022/05/13 10:03:26;;;;;;;4.57;1.83;;;19.70;50.00;20.80;101220.00;;;;4946951;29;20174;-52
2022/05/13 10:06:14;;;;;;;3.07;1.70;;;19.70;50.00;20.80;101222.00;;;;4948164;28;20184;-50
2022/05/13 10:13:57;;;;;;;2.30;1.90;;;19.70;50.00;20.80;101214.00;;;;4938958;28;20713;-53
2022/05/13 10:14:43;;;;;;;2.30;1.80;;;19.80;50.10;20.80;101232.00;;;;4946230;29;20595;-52
2022/05/13 10:17:20;;;;;;;2.80;1.80;;;19.80;50.10;20.80;101236.00;;;;4946370;29;20250;-52
2022/05/13 10:19:52;;;;;;;1.83;1.43;;;19.80;50.10;20.80;101246.00;;;;4946821;29;20240;-51
2022/05/13 10:22:28;;;;;;;4.83;1.70;;;19.80;50.10;20.60;101233.00;;;;4947116;28;20196;-51
2022/05/13 10:25:14;;;;;;;2.13;1.63;;;19.80;50.10;20.90;101235.00;;;;4947305;29;20170;-52
2022/05/13 10:27:52;;;;;;;3.03;1.70;;;19.80;50.10;20.90;101226.00;;;;4947587;28;20580;-52
2022/05/13 10:30:45;;;;;;;2.30;1.80;;;19.80;50.10;20.90;101235.00;;;;4946564;29;20181;-52
2022/05/13 10:33:24;;;;;;;3.77;1.67;;;19.90;50.20;20.90;101236.00;;;;4929353;29;20201;-54
2022/05/13 10:36:23;;;;;;;2.20;1.67;;;19.90;50.10;20.90;101240.00;;;;4946716;29;20169;-53
2022/05/13 10:38:56;;;;;;;1.53;1.43;;;19.90;50.10;20.90;101239.00;;;;4946523;29;20220;-51
2022/05/13 10:41:44;;;;;;;2.37;1.63;;;19.90;50.10;20.90;101240.00;;;;4947094;29;20237;-51
2022/05/13 10:44:23;;;;;;;2.30;1.63;;;19.90;50.10;20.90;101242.00;;;;4946896;29;20162;-52
2022/05/13 10:47:01;;;;;;;1.97;1.63;;;19.90;50.10;21.00;101236.00;;;;4946869;29;20181;-52
2022/05/13 10:49:34;;;;;;;2.20;1.60;;;20.00;50.20;21.00;101232.00;;;;4946537;28;20177;-51
2022/05/13 10:52:44;;;;;;;1.80;1.50;;;20.00;50.30;21.00;101232.00;;;;4929471;29;20185;-52
2022/05/13 10:55:44;;;;;;;1.87;1.60;;;20.00;50.20;21.00;101234.00;;;;4909026;29;20195;-52
2022/05/13 10:58:23;;;;;;;2.97;1.70;;;20.00;50.20;21.00;101243.00;;;;4920092;29;20195;-52
2022/05/13 11:01:28;;;;;;;1.70;1.57;;;20.00;50.20;21.00;101235.00;;;;4931263;29;20327;-52
2022/05/13 11:04:16;;;;;;;1.63;1.53;;;20.00;50.20;21.00;101223.00;;;;4912819;29;20182;-52
2022/05/13 11:07:22;;;;;;;2.17;1.60;;;20.10;50.20;21.10;101211.00;;;;4913483;29;20168;-52
2022/05/13 11:10:21;;;;;;;1.87;1.60;;;20.10;50.30;21.10;101231.00;;;;4910830;29;20561;-52
2022/05/13 11:13:10;;;;;;;1.83;1.57;;;20.10;50.10;21.10;101232.00;;;;4912396;29;20223;-53
2022/05/13 11:15:43;;;;;;;2.10;1.20;;;20.20;50.10;21.10;101230.00;;;;4927343;29;20173;-50
2022/05/13 11:18:37;;;;;;;1.80;1.53;;;20.10;51.00;21.10;101226.00;;;;4927382;29;20205;-51
2022/05/13 11:21:29;;;;;;;1.80;1.60;;;20.20;50.40;21.10;101231.00;;;;4911850;29;20190;-52
2022/05/13 11:27:43;;;;;;;2.60;1.67;;;20.20;50.40;21.20;101226.00;;;;4925734;29;20167;-53
2022/05/13 11:30:42;;;;;;;2.63;1.50;;;20.30;50.50;21.20;101225.00;;;;4914765;29;20702;-53